createdAt,value
2023-02-26T00:03:33.360Z,98173.25
2023-02-26T00:06:21.021Z,98185.53
2023-02-26T00:09:08.333Z,98187.81
2023-02-26T00:11:55.742Z,98181.16
2023-02-26T00:14:43.378Z,98183.22
2023-02-26T00:17:30.387Z,98202.25
2023-02-26T00:20:18.198Z,98199.38
2023-02-26T00:23:05.552Z,98194.53
2023-02-26T00:25:52.634Z,98198.00
2023-02-26T00:28:40.133Z,98212.22
2023-02-26T00:31:27.948Z,98197.16
2023-02-26T00:34:16.023Z,98200.88
2023-02-26T00:37:24.278Z,98218.66
2023-02-26T00:40:16.233Z,98202.00
2023-02-26T00:43:06.508Z,98193.06
2023-02-26T00:46:02.574Z,98201.38
2023-02-26T00:48:56.465Z,98206.66
2023-02-26T00:51:55.604Z,98207.78
2023-02-26T00:54:42.612Z,98175.25
2023-02-26T00:57:29.663Z,98185.00
2023-02-26T01:00:17.163Z,98187.53
2023-02-26T01:03:04.598Z,98193.06
2023-02-26T01:05:51.937Z,98179.09
2023-02-26T01:09:05.855Z,98192.19
2023-02-26T01:11:55.340Z,98184.22
2023-02-26T01:14:42.806Z,98199.50
2023-02-26T01:17:41.160Z,98198.06
2023-02-26T01:20:35.738Z,98192.44
2023-02-26T01:23:26.136Z,98192.88
2023-02-26T01:26:20.835Z,98196.44
2023-02-26T01:29:08.240Z,98196.09
2023-02-26T01:32:08.198Z,98206.03
2023-02-26T01:35:04.050Z,98188.63
2023-02-26T01:37:54.272Z,98207.78
2023-02-26T01:40:41.179Z,98225.47
2023-02-26T01:43:51.911Z,98227.00
2023-02-26T01:46:44.843Z,98215.56
2023-02-26T01:49:32.757Z,98209.59
2023-02-26T01:52:38.578Z,98220.47
2023-02-26T01:55:29.204Z,98176.31
2023-02-26T01:58:17.316Z,98196.69
2023-02-26T02:01:04.992Z,98212.22
2023-02-26T02:03:52.104Z,98229.75
2023-02-26T02:06:39.417Z,98203.59
2023-02-26T02:09:27.234Z,98250.88
2023-02-26T02:13:09.920Z,98245.09
2023-02-26T02:16:08.894Z,98242.03
2023-02-26T02:19:20.402Z,98248.34
2023-02-26T02:22:38.605Z,98250.28
2023-02-26T02:25:44.221Z,98245.94
2023-02-26T02:28:39.299Z,98252.19
2023-02-26T02:31:36.912Z,98251.81
2023-02-26T02:34:33.362Z,98235.88
2023-02-26T02:38:09.544Z,98267.72
2023-02-26T02:41:09.963Z,98264.84
2023-02-26T02:44:02.336Z,98256.59
2023-02-26T02:46:52.875Z,98270.66
2023-02-26T02:49:46.710Z,98276.34
2023-02-26T02:52:42.930Z,98272.31
2023-02-26T02:55:38.665Z,98274.19
2023-02-26T02:58:31.401Z,98250.75
2023-02-26T03:01:22.329Z,98271.84
2023-02-26T03:04:13.551Z,98258.59
2023-02-26T03:07:00.816Z,98268.16
2023-02-26T03:09:47.978Z,98283.44
2023-02-26T03:12:35.250Z,98299.91
2023-02-26T03:15:34.348Z,98277.97
2023-02-26T03:18:42.903Z,98296.56
2023-02-26T03:21:52.364Z,98272.72
2023-02-26T03:24:59.537Z,98288.63
2023-02-26T03:28:25.649Z,98294.66
2023-02-26T03:31:23.390Z,98309.34
2023-02-26T03:34:24.766Z,98328.97
2023-02-26T03:37:31.313Z,98332.47
2023-02-26T03:40:30.576Z,98331.81
2023-02-26T03:44:13.697Z,98316.41
2023-02-26T03:47:08.622Z,98333.09
2023-02-26T03:50:02.930Z,98319.06
2023-02-26T03:52:52.821Z,98306.38
2023-02-26T03:55:43.900Z,98343.34
2023-02-26T03:58:31.291Z,98336.91
2023-02-26T04:01:23.724Z,98323.50
2023-02-26T04:04:19.579Z,98359.06
2023-02-26T04:07:06.933Z,98367.00
2023-02-26T04:09:54.097Z,98365.84
2023-02-26T04:12:41.175Z,98361.06
2023-02-26T04:15:28.519Z,98329.50
2023-02-26T04:18:15.768Z,98362.97
2023-02-26T04:21:03.127Z,98381.03
2023-02-26T04:23:50.348Z,98361.59
2023-02-26T04:26:37.565Z,98355.56
2023-02-26T04:29:24.746Z,98358.53
2023-02-26T04:32:11.921Z,98351.16
2023-02-26T04:34:59.132Z,98346.69
2023-02-26T04:37:46.196Z,98365.41
2023-02-26T04:40:33.376Z,98368.88
2023-02-26T04:43:20.608Z,98367.84
2023-02-26T04:46:07.802Z,98372.38
2023-02-26T04:48:54.883Z,98378.69
2023-02-26T04:51:41.944Z,98381.00
2023-02-26T04:54:29.224Z,98353.97
2023-02-26T04:57:16.667Z,98353.47
2023-02-26T05:00:07.574Z,98373.66
2023-02-26T05:02:55.144Z,98388.22
2023-02-26T05:05:42.564Z,98379.53
2023-02-26T05:08:29.777Z,98413.66
2023-02-26T05:11:16.861Z,98373.66
2023-02-26T05:14:04.071Z,98391.38
2023-02-26T05:16:51.144Z,98413.13
2023-02-26T05:19:38.313Z,98401.59
2023-02-26T05:22:25.444Z,98400.00
2023-02-26T05:25:13.199Z,98420.94
2023-02-26T05:28:00.663Z,98411.72
2023-02-26T05:30:47.972Z,98432.09
2023-02-26T05:33:35.099Z,98433.81
2023-02-26T05:36:22.416Z,98448.56
2023-02-26T05:39:10.669Z,98434.88
2023-02-26T05:41:57.844Z,98436.66
2023-02-26T05:44:45.023Z,98432.91
2023-02-26T05:47:34.107Z,98440.47
2023-02-26T05:50:21.196Z,98427.28
2023-02-26T05:53:08.913Z,98447.91
2023-02-26T05:55:56.064Z,98455.66
2023-02-26T05:58:43.169Z,98462.03
2023-02-26T06:01:30.593Z,98454.69
2023-02-26T06:04:17.796Z,98452.84
2023-02-26T06:07:05.017Z,98477.59
2023-02-26T06:09:52.206Z,98456.59
2023-02-26T06:12:39.648Z,98453.88
2023-02-26T06:15:26.884Z,98454.81
2023-02-26T06:18:13.940Z,98496.34
2023-02-26T06:21:01.971Z,98505.41
2023-02-26T06:23:49.064Z,98502.75
2023-02-26T06:26:36.218Z,98492.69
2023-02-26T06:29:23.702Z,98487.31
2023-02-26T06:32:10.897Z,98481.53
2023-02-26T06:34:58.160Z,98499.91
2023-02-26T06:37:45.341Z,98528.16
2023-02-26T06:40:32.505Z,98537.69
2023-02-26T06:43:19.751Z,98524.56
2023-02-26T06:46:06.941Z,98510.97
2023-02-26T06:48:54.123Z,98516.03
2023-02-26T06:51:41.496Z,98538.28
2023-02-26T06:54:28.545Z,98528.03
2023-02-26T06:57:15.711Z,98550.66
2023-02-26T07:00:04.570Z,98555.97
2023-02-26T07:02:53.876Z,98523.50
2023-02-26T07:05:41.513Z,98536.25
2023-02-26T07:08:28.593Z,98560.47
2023-02-26T07:11:15.715Z,98560.66
2023-02-26T07:14:02.841Z,98570.28
2023-02-26T07:16:50.204Z,98577.91
2023-02-26T07:19:37.275Z,98586.78
2023-02-26T07:22:37.322Z,98539.97
2023-02-26T07:25:25.572Z,98559.50
2023-02-26T07:28:18.899Z,98571.94
2023-02-26T07:31:09.027Z,98626.00
2023-02-26T07:33:56.390Z,98618.50
2023-02-26T07:42:08.934Z,98545.06
2023-02-26T07:44:47.004Z,98610.75
2023-02-26T07:47:25.048Z,98627.28
2023-02-26T07:50:14.646Z,98584.59
2023-02-26T07:52:43.700Z,98578.13
2023-02-26T07:55:35.194Z,98556.25
2023-02-26T07:58:08.519Z,98624.84
2023-02-26T08:00:43.682Z,98562.88
2023-02-26T08:03:31.095Z,98567.81
2023-02-26T08:06:06.874Z,98567.16
2023-02-26T08:08:53.570Z,98565.91
2023-02-26T08:11:23.927Z,98578.50
2023-02-26T08:14:12.458Z,98604.03
2023-02-26T08:27:55.469Z,98664.31
2023-02-26T08:39:03.741Z,98693.63
2023-02-26T08:41:50.933Z,98693.94
2023-02-26T08:44:37.995Z,98696.88
2023-02-26T08:47:28.999Z,98688.47
2023-02-26T08:50:16.300Z,98699.16
2023-02-26T08:53:03.716Z,98709.50
2023-02-26T08:55:52.584Z,98706.50
2023-02-26T08:58:40.107Z,98710.53
2023-02-26T09:01:28.444Z,98718.75
2023-02-26T09:04:15.938Z,98708.44
2023-02-26T09:07:02.961Z,98727.41
2023-02-26T09:09:50.144Z,98729.72
2023-02-26T09:12:38.181Z,98731.44
2023-02-26T09:15:25.367Z,98734.72
2023-02-26T09:18:15.680Z,98745.31
2023-02-26T09:21:03.422Z,98742.16
2023-02-26T09:23:50.650Z,98747.13
2023-02-26T09:26:38.491Z,98748.63
2023-02-26T09:29:25.607Z,98746.28
2023-02-26T09:32:13.188Z,98745.31
2023-02-26T09:35:00.355Z,98732.91
2023-02-26T09:37:47.424Z,98762.28
2023-02-26T09:40:59.199Z,98768.13
2023-02-26T09:44:06.146Z,98762.91
2023-02-26T09:47:02.444Z,98772.75
2023-02-26T09:49:59.874Z,98778.78
2023-02-26T09:53:03.941Z,98765.97
2023-02-26T09:55:53.896Z,98765.66
2023-02-26T09:58:42.055Z,98761.75
2023-02-26T10:01:38.456Z,98783.50
2023-02-26T10:05:06.878Z,98784.81
2023-02-26T10:08:08.383Z,98788.44
2023-02-26T10:11:05.825Z,98778.78
2023-02-26T10:14:03.021Z,98787.31
2023-02-26T10:16:54.919Z,98785.28
2023-02-26T10:19:45.856Z,98787.50
2023-02-26T10:22:35.869Z,98802.03
2023-02-26T10:25:27.116Z,98806.22
2023-02-26T10:28:35.799Z,98808.84
2023-02-26T10:31:26.116Z,98815.50
2023-02-26T10:34:37.337Z,98818.19
2023-02-26T10:37:44.604Z,98824.13
2023-02-26T10:40:50.413Z,98827.94
2023-02-26T10:43:43.270Z,98823.59
2023-02-26T10:46:44.583Z,98821.25
2023-02-26T10:49:45.634Z,98828.19
2023-02-26T10:52:36.239Z,98817.47
2023-02-26T10:56:04.989Z,98792.59
2023-02-26T10:58:53.238Z,98817.75
2023-02-26T11:01:41.012Z,98826.75
2023-02-26T11:04:28.584Z,98808.03
2023-02-26T11:07:15.937Z,98833.47
2023-02-26T11:10:03.948Z,98847.84
2023-02-26T11:12:51.994Z,98823.56
2023-02-26T11:15:42.226Z,98823.81
2023-02-26T11:19:00.076Z,98819.78
2023-02-26T11:21:48.588Z,98823.13
2023-02-26T11:24:40.565Z,98812.00
2023-02-26T11:27:32.729Z,98819.94
2023-02-26T11:30:22.786Z,98805.91
2023-02-26T11:33:23.029Z,98798.66
2023-02-26T11:36:14.746Z,98805.25
2023-02-26T11:39:12.552Z,98822.31
2023-02-26T11:42:02.724Z,98777.56
2023-02-26T11:44:52.220Z,98771.19
2023-02-26T11:47:39.650Z,98798.13
2023-02-26T11:50:29.053Z,98795.19
2023-02-26T11:53:24.951Z,98797.78
2023-02-26T11:56:15.965Z,98796.84
2023-02-26T11:59:11.740Z,98789.63
2023-02-26T12:02:12.709Z,98792.06
2023-02-26T12:05:03.560Z,98797.56
2023-02-26T12:07:51.031Z,98793.34
2023-02-26T12:11:26.378Z,98788.59
2023-02-26T12:14:39.439Z,98786.03
2023-02-26T12:17:44.675Z,98758.75
2023-02-26T12:20:57.074Z,98782.81
2023-02-26T12:24:05.703Z,98781.78
2023-02-26T12:27:21.851Z,98770.56
2023-02-26T12:30:40.727Z,98781.72
2023-02-26T12:33:51.395Z,98792.09
2023-02-26T12:37:06.066Z,98813.53
2023-02-26T12:40:20.389Z,98816.25
2023-02-26T12:43:12.244Z,98810.88
2023-02-26T12:46:24.865Z,98812.00
2023-02-26T12:49:31.262Z,98802.75
2023-02-26T12:52:41.510Z,98805.09
2023-02-26T12:55:53.510Z,98802.94
2023-02-26T12:58:43.590Z,98816.38
2023-02-26T13:01:36.661Z,98812.75
2023-02-26T13:04:50.542Z,98821.16
2023-02-26T13:07:49.626Z,98822.41
2023-02-26T13:10:52.673Z,98835.06
2023-02-26T13:14:04.325Z,98827.94
2023-02-26T13:17:16.247Z,98840.75
2023-02-26T13:20:17.069Z,98847.81
2023-02-26T13:23:13.090Z,98849.63
2023-02-26T13:26:03.331Z,98853.00
2023-02-26T13:28:59.128Z,98873.03
2023-02-26T13:32:08.333Z,98878.31
2023-02-26T13:35:04.554Z,98857.50
2023-02-26T13:37:57.508Z,98868.31
2023-02-26T13:41:03.310Z,98865.13
2023-02-26T13:44:13.850Z,98867.91
2023-02-26T13:47:20.512Z,98851.81
2023-02-26T13:50:17.327Z,98856.28
2023-02-26T13:53:32.641Z,98845.03
2023-02-26T13:56:32.981Z,98872.69
2023-02-26T13:59:26.188Z,98872.50
2023-02-26T14:02:47.781Z,98871.66
2023-02-26T14:05:45.540Z,98868.31
2023-02-26T14:08:43.674Z,98869.25
2023-02-26T14:11:38.050Z,98860.75
2023-02-26T14:14:32.677Z,98866.09
2023-02-26T14:17:29.414Z,98863.44
2023-02-26T14:20:27.590Z,98877.69
2023-02-26T14:23:32.139Z,98874.78
2023-02-26T14:26:20.338Z,98884.09
2023-02-26T14:29:36.295Z,98899.44
2023-02-26T14:32:34.816Z,98882.41
2023-02-26T14:35:29.036Z,98901.59
2023-02-26T14:38:25.146Z,98910.69
2023-02-26T14:41:33.029Z,98903.53
2023-02-26T14:44:27.666Z,98897.13
2023-02-26T14:47:15.752Z,98903.09
2023-02-26T14:50:04.401Z,98899.63
2023-02-26T14:53:18.573Z,98906.91
2023-02-26T14:56:15.569Z,98911.66
2023-02-26T14:59:24.636Z,98904.47
2023-02-26T15:02:23.360Z,98906.97
2023-02-26T15:05:36.736Z,98912.88
2023-02-26T15:08:33.311Z,98905.75
2023-02-26T15:11:43.444Z,98917.44
2023-02-26T15:15:02.443Z,98919.94
2023-02-26T15:18:06.309Z,98913.19
2023-02-26T15:21:12.155Z,98933.00
2023-02-26T15:24:00.789Z,98926.41
2023-02-26T15:27:02.546Z,98952.50
2023-02-26T15:29:53.578Z,98962.91
2023-02-26T15:32:41.742Z,98968.66
2023-02-26T15:35:32.325Z,98972.47
2023-02-26T15:38:20.975Z,98971.19
2023-02-26T15:41:09.647Z,98976.19
2023-02-26T15:44:03.989Z,98987.53
2023-02-26T15:46:58.744Z,99010.13
2023-02-26T15:49:48.654Z,99016.91
2023-02-26T15:52:36.697Z,99010.75
2023-02-26T15:55:24.889Z,99044.16
2023-02-26T15:58:21.342Z,99029.44
2023-02-26T16:01:17.420Z,99033.81
2023-02-26T16:04:08.659Z,99027.94
2023-02-26T16:06:59.479Z,99034.66
2023-02-26T16:09:50.375Z,99049.88
2023-02-26T16:12:44.344Z,99042.09
2023-02-26T16:15:40.255Z,99046.94
2023-02-26T16:18:28.878Z,99058.81
2023-02-26T16:21:43.374Z,99068.28
2023-02-26T16:24:32.309Z,99060.63
2023-02-26T16:27:21.670Z,99066.56
2023-02-26T16:30:18.619Z,99074.84
2023-02-26T16:33:13.636Z,99068.09
2023-02-26T16:36:18.890Z,99069.88
2023-02-26T16:39:09.646Z,99087.47
2023-02-26T16:42:21.668Z,99084.22
2023-02-26T16:45:23.342Z,99091.38
2023-02-26T16:48:20.925Z,99099.50
2023-02-26T16:51:20.875Z,99102.47
2023-02-26T16:54:40.228Z,99113.31
2023-02-26T16:57:43.657Z,99128.38
2023-02-26T17:00:31.686Z,99120.28
2023-02-26T17:03:27.685Z,99139.28
2023-02-26T17:06:19.448Z,99128.88
2023-02-26T17:09:10.974Z,99141.34
2023-02-26T17:12:18.418Z,99148.44
2023-02-26T17:15:19.647Z,99152.44
2023-02-26T17:18:23.242Z,99129.06
2023-02-26T17:21:11.621Z,99163.81
2023-02-26T17:24:03.353Z,99124.56
2023-02-26T17:26:52.031Z,99162.41
2023-02-26T17:29:42.729Z,99157.78
2023-02-26T17:32:38.274Z,99163.78
2023-02-26T17:35:28.289Z,99185.50
2023-02-26T17:38:17.908Z,99186.44
2023-02-26T17:41:07.297Z,99193.19
2023-02-26T17:43:58.810Z,99183.13
2023-02-26T17:46:47.145Z,99197.13
2023-02-26T17:49:35.198Z,99202.63
2023-02-26T17:52:23.909Z,99203.25
2023-02-26T17:55:11.954Z,99206.16
2023-02-26T17:58:00.379Z,99212.13
2023-02-26T18:00:50.728Z,99205.22
2023-02-26T18:03:44.922Z,99219.13
2023-02-26T18:06:37.473Z,99203.47
2023-02-26T18:09:25.636Z,99218.47
2023-02-26T18:12:16.368Z,99206.75
2023-02-26T18:15:06.533Z,99224.75
2023-02-26T18:17:54.754Z,99203.13
2023-02-26T18:20:44.876Z,99213.88
2023-02-26T18:23:33.048Z,99215.91
2023-02-26T18:26:24.709Z,99208.81
2023-02-26T18:29:15.060Z,99213.00
2023-02-26T18:32:04.287Z,99206.91
2023-02-26T18:34:53.537Z,99223.88
2023-02-26T18:37:41.297Z,99220.25
2023-02-26T18:40:29.598Z,99204.66
2023-02-26T18:43:19.230Z,99218.22
2023-02-26T18:46:07.746Z,99232.75
2023-02-26T18:48:57.693Z,99230.97
2023-02-26T18:51:46.887Z,99241.25
2023-02-26T18:54:35.776Z,99223.28
2023-02-26T18:57:26.325Z,99235.25
2023-02-26T19:00:16.281Z,99243.97
2023-02-26T19:03:04.163Z,99255.50
2023-02-26T19:06:03.390Z,99255.69
2023-02-26T19:08:52.113Z,99264.56
2023-02-26T19:11:40.528Z,99256.03
2023-02-26T19:14:30.633Z,99251.00
2023-02-26T19:17:18.902Z,99262.25
2023-02-26T19:20:07.680Z,99251.09
2023-02-26T19:25:41.219Z,99273.69
2023-02-26T19:28:32.606Z,99273.94
2023-02-26T19:31:20.791Z,99268.56
2023-02-26T19:34:08.832Z,99288.16
2023-02-26T19:36:59.796Z,99267.94
2023-02-26T19:39:49.371Z,99286.06
2023-02-26T19:42:38.896Z,99303.09
2023-02-26T19:45:26.536Z,99305.19
2023-02-26T19:48:14.679Z,99303.81
2023-02-26T19:51:05.398Z,99291.53
2023-02-26T19:53:53.865Z,99310.63
2023-02-26T19:56:45.735Z,99320.34
2023-02-26T19:59:34.040Z,99308.94
2023-02-26T20:02:22.358Z,99309.16
2023-02-26T20:05:16.649Z,99301.09
2023-02-26T20:08:08.722Z,99321.66
2023-02-26T20:10:58.152Z,99323.16
2023-02-26T20:13:47.778Z,99304.97
2023-02-26T20:16:37.448Z,99321.75
2023-02-26T20:19:25.753Z,99340.28
2023-02-26T20:22:13.322Z,99348.72
2023-02-26T20:25:01.628Z,99335.66
2023-02-26T20:27:50.203Z,99351.72
2023-02-26T20:30:38.535Z,99359.78
2023-02-26T20:33:27.123Z,99352.06
2023-02-26T20:36:15.396Z,99364.00
2023-02-26T20:39:03.550Z,99367.97
2023-02-26T20:41:53.026Z,99373.25
2023-02-26T20:44:41.314Z,99370.53
2023-02-26T20:47:30.036Z,99386.91
2023-02-26T20:50:18.667Z,99378.00
2023-02-26T20:53:07.946Z,99380.56
2023-02-26T20:55:56.477Z,99386.13
2023-02-26T20:58:44.685Z,99369.91
2023-02-26T21:01:35.802Z,99386.06
2023-02-26T21:04:23.581Z,99395.06
2023-02-26T21:07:22.976Z,99378.63
2023-02-26T21:10:14.219Z,99386.41
2023-02-26T21:13:04.435Z,99393.88
2023-02-26T21:15:52.272Z,99393.44
2023-02-26T21:18:40.080Z,99387.06
2023-02-26T21:21:28.192Z,99383.88
2023-02-26T21:24:16.256Z,99376.44
2023-02-26T21:27:04.373Z,99396.72
2023-02-26T21:29:51.991Z,99395.06
2023-02-26T21:32:39.901Z,99394.69
2023-02-26T21:35:28.026Z,99393.13
2023-02-26T21:38:15.984Z,99392.66
2023-02-26T21:41:03.552Z,99401.97
2023-02-26T21:43:51.364Z,99383.41
2023-02-26T21:46:38.869Z,99401.59
2023-02-26T21:49:27.576Z,99409.66
2023-02-26T21:52:14.920Z,99409.75
2023-02-26T21:55:02.023Z,99407.88
2023-02-26T21:57:49.176Z,99421.25
2023-02-26T22:00:36.200Z,99416.41
2023-02-26T22:03:23.332Z,99397.06
2023-02-26T22:06:10.356Z,99420.16
2023-02-26T22:08:57.497Z,99422.56
2023-02-26T22:11:44.643Z,99429.06
2023-02-26T22:14:31.741Z,99432.50
2023-02-26T22:17:18.843Z,99426.50
2023-02-26T22:20:10.235Z,99425.72
2023-02-26T22:22:57.853Z,99428.22
2023-02-26T22:25:46.124Z,99423.88
2023-02-26T22:28:33.242Z,99424.81
2023-02-26T22:31:20.444Z,99415.41
2023-02-26T22:34:07.471Z,99427.59
2023-02-26T22:36:54.982Z,99447.19
2023-02-26T22:39:42.729Z,99435.44
2023-02-26T22:42:30.721Z,99429.91
2023-02-26T22:45:18.054Z,99431.09
2023-02-26T22:48:05.416Z,99446.31
2023-02-26T22:50:52.426Z,99446.56
2023-02-26T22:53:39.545Z,99446.31
2023-02-26T22:56:26.753Z,99445.41
2023-02-26T22:59:13.852Z,99456.19
2023-02-26T23:02:00.892Z,99454.16
2023-02-26T23:04:48.030Z,99457.25
2023-02-26T23:07:36.016Z,99457.91
2023-02-26T23:10:23.156Z,99458.59
2023-02-26T23:13:10.192Z,99469.00
2023-02-26T23:15:58.075Z,99472.00
2023-02-26T23:18:48.144Z,99456.66
2023-02-26T23:21:35.243Z,99462.25
2023-02-26T23:24:22.414Z,99455.88
2023-02-26T23:27:09.576Z,99481.81
2023-02-26T23:29:56.660Z,99469.16
2023-02-26T23:32:43.898Z,99481.59
2023-02-26T23:35:31.243Z,99436.16
2023-02-26T23:38:18.398Z,99488.41
2023-02-26T23:41:05.856Z,99482.75
2023-02-26T23:43:52.932Z,99485.53
2023-02-26T23:46:40.035Z,99469.09
2023-02-26T23:49:27.138Z,99467.06
2023-02-26T23:52:14.243Z,99493.84
2023-02-26T23:55:02.646Z,99487.94
2023-02-26T23:57:49.782Z,99495.50
